createdAt,value
2019-04-23T00:03:17.001Z,7.00
2019-04-23T00:08:29.200Z,6.00
2019-04-23T00:13:29.345Z,6.00
2019-04-23T00:18:37.379Z,6.00
2019-04-23T00:23:44.629Z,6.00
2019-04-23T00:28:42.171Z,6.00
2019-04-23T00:33:44.457Z,5.40
2019-04-23T00:38:50.254Z,6.00
2019-04-23T00:49:06.756Z,5.00
2019-04-23T00:54:13.605Z,5.00
2019-04-23T00:59:19.436Z,6.00
2019-04-23T01:04:20.443Z,6.40
2019-04-23T01:09:29.325Z,5.40
2019-04-23T01:14:33.316Z,5.00
2019-04-23T01:19:44.426Z,5.00
2019-04-23T01:24:40.368Z,6.00
2019-04-23T01:30:09.633Z,5.50
2019-04-23T01:35:33.361Z,6.00
2019-04-23T01:40:19.085Z,8.00
2019-04-23T01:45:31.605Z,5.60
2019-04-23T01:50:52.206Z,5.50
2019-04-23T02:00:41.236Z,5.00
2019-04-23T02:05:48.129Z,5.00
2019-04-23T02:10:58.805Z,5.50
2019-04-23T02:16:15.237Z,6.00
2019-04-23T02:21:07.046Z,6.00
2019-04-23T02:26:17.057Z,5.20
2019-04-23T02:36:32.168Z,6.00
2019-04-23T02:41:34.705Z,5.25
2019-04-23T02:46:40.915Z,5.00
2019-04-23T02:51:51.014Z,6.00
2019-04-23T02:56:51.000Z,5.00
2019-04-23T03:02:11.994Z,6.00
2019-04-23T03:07:14.132Z,6.00
2019-04-23T03:12:22.506Z,6.00
2019-04-23T03:17:19.406Z,6.80
2019-04-23T03:22:42.209Z,5.00
2019-04-23T03:27:34.221Z,5.25
2019-04-23T03:33:38.087Z,7.50
2019-04-23T03:43:04.378Z,5.75
2019-04-23T03:48:05.691Z,8.00
2019-04-23T03:53:03.010Z,8.00
2019-04-23T03:58:21.158Z,8.00
2019-04-23T04:08:36.108Z,9.00
2019-04-23T04:13:31.064Z,7.25
2019-04-23T04:23:43.531Z,8.50
2019-04-23T04:38:57.681Z,9.00
2019-04-23T04:44:22.273Z,9.00
2019-04-23T04:54:14.286Z,10.40
2019-04-23T04:59:13.322Z,10.75
2019-04-23T05:04:26.685Z,10.40
2019-04-23T05:09:43.926Z,10.20
2019-04-23T05:14:43.959Z,9.75
2019-04-23T05:19:45.675Z,9.25
2019-04-23T05:24:43.243Z,11.00
2019-04-23T05:29:54.310Z,10.25
2019-04-23T05:34:56.157Z,10.00
2019-04-23T05:40:08.738Z,10.75
2019-04-23T05:45:06.026Z,10.50
2019-04-23T05:50:21.574Z,10.50
2019-04-23T05:55:13.293Z,11.00
2019-04-23T06:00:23.668Z,11.00
2019-04-23T06:05:26.276Z,10.75
2019-04-23T06:10:32.659Z,11.20
2019-04-23T06:15:41.791Z,11.00
2019-04-23T06:20:51.225Z,10.00
2019-04-23T06:31:01.996Z,11.00
2019-04-23T06:36:09.002Z,11.00
2019-04-23T06:41:11.728Z,9.00
2019-04-23T06:46:13.525Z,10.50
2019-04-23T06:51:19.660Z,10.25
2019-04-23T06:56:27.811Z,13.00
2019-04-23T07:01:27.445Z,13.00
2019-04-23T07:11:47.491Z,11.00
2019-04-23T07:16:59.250Z,13.75
2019-04-23T07:21:52.570Z,10.25
2019-04-23T07:26:45.013Z,11.00
2019-04-23T07:32:03.612Z,13.00
2019-04-23T07:37:07.415Z,11.75
2019-04-23T07:42:41.878Z,11.00
2019-04-23T07:48:08.073Z,10.50
2019-04-23T07:53:13.144Z,12.00
2019-04-23T08:03:27.432Z,11.50
2019-04-23T08:08:16.785Z,10.60
2019-04-23T08:13:38.014Z,10.25
2019-04-23T08:18:36.537Z,10.20
2019-04-23T08:23:58.683Z,11.60
2019-04-23T08:29:04.047Z,11.00
2019-04-23T08:34:18.630Z,9.25
2019-04-23T08:39:12.076Z,10.40
2019-04-23T08:45:00.362Z,9.20
2019-04-23T08:54:58.075Z,8.75
2019-04-23T08:59:48.627Z,10.00
2019-04-23T09:05:00.511Z,9.40
2019-04-23T09:10:04.687Z,10.00
2019-04-23T09:15:09.673Z,9.25
2019-04-23T09:20:21.915Z,9.20
2019-04-23T09:30:28.595Z,9.50
2019-04-23T09:35:44.571Z,10.00
2019-04-23T09:41:22.160Z,9.00
2019-04-23T09:46:41.691Z,9.00
2019-04-23T09:51:45.203Z,8.75
2019-04-23T09:56:50.826Z,10.00
2019-04-23T10:01:45.162Z,9.75
2019-04-23T10:06:38.985Z,10.50
2019-04-23T10:11:40.819Z,10.00
2019-04-23T10:16:45.169Z,10.00
2019-04-23T10:21:49.322Z,10.00
2019-04-23T10:26:53.157Z,10.00
2019-04-23T10:31:57.688Z,9.20
2019-04-23T10:37:01.992Z,9.00
2019-04-23T10:42:07.957Z,15.25
2019-04-23T10:48:02.647Z,18.00
2019-04-23T10:53:09.861Z,17.00
2019-04-23T10:58:08.298Z,17.00
2019-04-23T11:03:31.564Z,17.00
2019-04-23T11:08:17.601Z,16.25
2019-04-23T11:13:31.464Z,18.67
2019-04-23T11:18:48.821Z,18.00
2019-04-23T11:23:46.659Z,18.80
2019-04-23T11:28:44.951Z,20.00
2019-04-23T11:34:28.614Z,19.40
2019-04-23T11:38:58.691Z,18.20
2019-04-23T11:44:04.031Z,20.75
2019-04-23T11:51:10.423Z,20.25
2019-04-23T11:54:17.842Z,21.00
2019-04-23T11:59:34.397Z,22.00
2019-04-23T12:10:17.413Z,21.25
2019-04-23T12:15:18.104Z,21.25
2019-04-23T12:20:21.362Z,22.00
2019-04-23T12:25:25.362Z,22.00
2019-04-23T12:30:35.922Z,22.00
2019-04-23T12:35:49.987Z,21.20
2019-04-23T12:40:45.790Z,22.00
2019-04-23T12:56:11.615Z,22.50
2019-04-23T13:01:00.002Z,23.00
2019-04-23T13:06:00.713Z,21.00
2019-04-23T13:11:13.974Z,18.50
2019-04-23T13:16:25.430Z,22.75
2019-04-23T13:21:45.266Z,20.00
2019-04-23T13:26:27.315Z,22.00
2019-04-23T13:31:36.265Z,22.00
2019-04-23T13:36:45.066Z,20.00
2019-04-23T13:41:46.149Z,19.50
2019-04-23T13:47:00.861Z,19.75
2019-04-23T13:52:15.253Z,19.00
2019-04-23T13:57:37.080Z,18.50
2019-04-23T14:02:17.658Z,20.50
2019-04-23T14:07:23.365Z,20.00
2019-04-23T14:12:30.257Z,19.50
2019-04-23T14:17:36.399Z,18.00
2019-04-23T14:28:05.824Z,19.00
2019-04-23T14:32:45.530Z,19.00
2019-04-23T14:38:09.830Z,17.00
2019-04-23T14:53:16.042Z,17.75
2019-04-23T15:03:30.751Z,17.00
2019-04-23T15:08:34.272Z,18.40
2019-04-23T15:13:27.545Z,18.75
2019-04-23T15:19:07.952Z,17.40
2019-04-23T15:28:43.626Z,18.20
2019-04-23T15:39:26.805Z,19.00
2019-04-23T15:54:37.155Z,16.40
2019-04-23T16:04:16.824Z,16.60
2019-04-23T16:09:46.886Z,21.00
2019-04-23T16:15:11.713Z,20.00
2019-04-23T16:20:39.183Z,17.40
2019-04-23T16:25:36.315Z,18.75
2019-04-23T16:30:53.105Z,18.00
2019-04-23T16:36:00.021Z,19.20
2019-04-23T16:40:57.129Z,20.00
2019-04-23T16:46:16.337Z,19.25
2019-04-23T17:01:22.851Z,18.40
2019-04-23T17:06:29.343Z,20.75
2019-04-23T17:11:34.362Z,19.75
2019-04-23T17:16:38.100Z,20.00
2019-04-23T17:21:44.408Z,19.00
2019-04-23T17:26:57.218Z,20.00
2019-04-23T17:32:05.801Z,20.00
2019-04-23T17:37:22.489Z,19.40
2019-04-23T17:47:45.566Z,17.00
2019-04-23T17:52:51.170Z,18.00
2019-04-23T17:57:55.817Z,17.80
2019-04-23T18:03:01.261Z,18.00
2019-04-23T18:08:00.311Z,18.00
2019-04-23T18:13:05.230Z,16.20
2019-04-23T18:18:19.756Z,16.00
2019-04-23T18:23:32.047Z,16.50
2019-04-23T18:28:20.685Z,17.50
2019-04-23T18:38:44.415Z,16.80
2019-04-23T18:43:51.846Z,18.60
2019-04-23T18:48:50.097Z,17.00
2019-04-23T18:53:52.980Z,15.75
2019-04-23T19:04:41.571Z,15.00
2019-04-23T19:09:39.163Z,16.00
2019-04-23T19:19:49.946Z,15.00
2019-04-23T19:25:01.723Z,15.00
2019-04-23T19:29:58.223Z,14.50
2019-04-23T19:35:04.314Z,15.25
2019-04-23T19:40:12.058Z,15.75
2019-04-23T19:45:16.714Z,15.80
2019-04-23T19:50:24.010Z,13.25
2019-04-23T19:55:21.106Z,13.75
2019-04-23T20:00:45.236Z,13.75
2019-04-23T20:05:41.920Z,14.00
2019-04-23T20:10:50.151Z,13.20
2019-04-23T20:16:12.308Z,13.20
2019-04-23T20:20:55.084Z,14.00
2019-04-23T20:26:13.572Z,14.00
2019-04-23T20:32:25.692Z,12.50
2019-04-23T20:36:29.934Z,13.75
2019-04-23T20:42:02.426Z,13.20
2019-04-23T20:47:01.686Z,14.00
2019-04-23T20:52:04.789Z,13.00
2019-04-23T21:02:52.136Z,13.00
2019-04-23T21:12:57.926Z,13.80
2019-04-23T21:28:14.240Z,13.25
2019-04-23T21:38:27.717Z,12.25
2019-04-23T21:44:05.109Z,12.75
2019-04-23T21:53:53.176Z,12.00
2019-04-23T22:04:39.872Z,11.00
2019-04-23T22:09:12.460Z,12.20
2019-04-23T22:24:21.233Z,10.60
2019-04-23T22:29:33.077Z,12.20
2019-04-23T22:34:41.870Z,11.00
2019-04-23T22:39:47.257Z,10.00
2019-04-23T22:44:59.980Z,9.75
2019-04-23T22:50:02.665Z,11.40
2019-04-23T22:55:18.129Z,9.75
2019-04-23T23:00:25.508Z,10.25
2019-04-23T23:05:29.376Z,10.00
2019-04-23T23:10:20.025Z,10.00
2019-04-23T23:25:42.136Z,11.00
2019-04-23T23:35:54.174Z,11.00
2019-04-23T23:41:03.906Z,8.75
2019-04-23T23:46:17.340Z,9.50
2019-04-23T23:51:17.758Z,10.00
2019-04-23T23:56:19.397Z,9.00
